Wetterdaten vom Montag, 27. Mai 2019

Temperatur Taupunkt Windchill Luftfeuchte Luftdruck Solarstrahlung Regen ET
(Verdunstung von Wasser)
Wind
Max 21.9 °C
14:20
13.1 °C
15:05
21.4 °C
13:20
80%
04:55
1009.8 hPa
00:00
1100 W/m²
12:00
19.6 km/h
10:30 km/h
Durchschnitt 15.8 °C 9.8 °C 14.8 °C 68% 1007.8 hPa 531 W/m² 0 mm 3.48 mm 8 km/h
Min 11.1 °C
05:10
7.7 °C
05:35
9.8 °C
05:20
53%
12:05
1005.4 hPa
14:25
0 km/h (Böe)
04:15 km/h
Zeit
00:00 13.9 °C 8.7 °C 13.9 °C 71% 1009.8 hPa 0 W/m² 0.0 mm 0.000 mm 6.2 km/h
00:05 13.8 °C 8.8 °C 13.5 °C 72% 1009.7 hPa 0 W/m² 0.0 mm 0.000 mm 6.9 km/h
00:10 13.8 °C 8.8 °C 13.8 °C 72% 1009.7 hPa 0 W/m² 0.0 mm 0.000 mm 6.4 km/h
00:15 13.8 °C 8.8 °C 13.4 °C 72% 1009.8 hPa 0 W/m² 0.0 mm 0.000 mm 7.1 km/h
00:20 13.8 °C 8.8 °C 13.6 °C 72% 1009.8 hPa 0 W/m² 0.0 mm 0.000 mm 6.7 km/h
00:25 13.8 °C 8.8 °C 13.5 °C 72% 1009.7 hPa 0 W/m² 0.0 mm 0.000 mm 6.9 km/h
00:30 13.8 °C 8.8 °C 13.8 °C 72% 1009.7 hPa 0 W/m² 0.0 mm 0.000 mm 6.0 km/h
00:35 13.7 °C 8.7 °C 13.7 °C 72% 1009.6 hPa 0 W/m² 0.0 mm 0.000 mm 5.0 km/h
00:40 13.7 °C 8.7 °C 13.7 °C 72% 1009.6 hPa 0 W/m² 0.0 mm 0.000 mm 6.2 km/h
00:45 13.7 °C 8.7 °C 13.5 °C 72% 1009.6 hPa 0 W/m² 0.0 mm 0.000 mm 6.7 km/h
00:50 13.6 °C 8.6 °C 13.2 °C 72% 1009.6 hPa 0 W/m² 0.0 mm 0.000 mm 7.1 km/h
00:55 13.5 °C 8.8 °C 13.5 °C 73% 1009.5 hPa 0 W/m² 0.0 mm 0.000 mm 5.3 km/h
01:00 13.3 °C 8.6 °C 13.3 °C 73% 1009.5 hPa 0 W/m² 0.0 mm 0.025 mm 0.4 km/h
01:05 13.2 °C 8.7 °C 13.2 °C 74% 1009.4 hPa 0 W/m² 0.0 mm 0.000 mm 4.1 km/h
01:10 13.1 °C 8.6 °C 13.1 °C 74% 1009.4 hPa 0 W/m² 0.0 mm 0.000 mm 5.6 km/h
01:15 12.9 °C 8.6 °C 12.9 °C 75% 1009.4 hPa 0 W/m² 0.0 mm 0.000 mm 3.9 km/h
01:20 12.8 °C 8.5 °C 12.8 °C 75% 1009.3 hPa 0 W/m² 0.0 mm 0.000 mm 3.9 km/h
01:25 12.8 °C 8.5 °C 12.8 °C 75% 1009.4 hPa 0 W/m² 0.0 mm 0.000 mm 5.9 km/h
01:30 12.8 °C 8.5 °C 12.8 °C 75% 1009.3 hPa 0 W/m² 0.0 mm 0.000 mm 4.0 km/h
01:35 12.7 °C 8.6 °C 12.7 °C 76% 1009.2 hPa 0 W/m² 0.0 mm 0.000 mm 5.4 km/h
01:40 12.6 °C 8.5 °C 12.6 °C 76% 1009.2 hPa 0 W/m² 0.0 mm 0.000 mm 5.1 km/h
01:45 12.5 °C 8.4 °C 12.5 °C 76% 1009.1 hPa 0 W/m² 0.0 mm 0.000 mm 5.4 km/h
01:50 12.5 °C 8.4 °C 12.2 °C 76% 1009.1 hPa 0 W/m² 0.0 mm 0.000 mm 6.8 km/h
01:55 12.7 °C 8.6 °C 11.6 °C 76% 1009.0 hPa 0 W/m² 0.0 mm 0.000 mm 8.2 km/h
02:00 12.7 °C 8.4 °C 12.0 °C 75% 1009.0 hPa 0 W/m² 0.0 mm 0.026 mm 7.5 km/h
02:05 12.7 °C 8.4 °C 11.7 °C 75% 1009.0 hPa 0 W/m² 0.0 mm 0.000 mm 7.9 km/h
02:10 12.7 °C 8.4 °C 12.1 °C 75% 1009.0 hPa 0 W/m² 0.0 mm 0.000 mm 7.3 km/h
02:15 12.7 °C 8.4 °C 12.6 °C 75% 1009.0 hPa 0 W/m² 0.0 mm 0.000 mm 6.6 km/h
02:20 12.7 °C 8.4 °C 12.4 °C 75% 1009.0 hPa 0 W/m² 0.0 mm 0.000 mm 6.9 km/h
02:25 12.7 °C 8.4 °C 12.7 °C 75% 1009.0 hPa 0 W/m² 0.0 mm 0.000 mm 6.5 km/h
02:30 12.8 °C 8.5 °C 12.8 °C 75% 1008.9 hPa 0 W/m² 0.0 mm 0.000 mm 6.5 km/h
02:35 12.7 °C 8.4 °C 12.7 °C 75% 1008.9 hPa 0 W/m² 0.0 mm 0.000 mm 5.5 km/h
02:40 12.7 °C 8.4 °C 12.7 °C 75% 1008.8 hPa 0 W/m² 0.0 mm 0.000 mm 4.6 km/h
02:45 12.7 °C 8.4 °C 12.4 °C 75% 1008.8 hPa 0 W/m² 0.0 mm 0.000 mm 6.9 km/h
02:50 12.7 °C 8.4 °C 12.5 °C 75% 1008.8 hPa 0 W/m² 0.0 mm 0.000 mm 6.8 km/h
02:55 12.6 °C 8.3 °C 12.0 °C 75% 1008.8 hPa 0 W/m² 0.0 mm 0.000 mm 7.3 km/h
03:00 12.6 °C 8.3 °C 12.6 °C 75% 1008.8 hPa 0 W/m² 0.0 mm 0.025 mm 5.2 km/h
03:05 12.6 °C 8.3 °C 12.6 °C 75% 1008.7 hPa 0 W/m² 0.0 mm 0.000 mm 5.2 km/h
03:10 12.6 °C 8.3 °C 12.6 °C 75% 1008.8 hPa 0 W/m² 0.0 mm 0.000 mm 4.6 km/h
03:15 12.6 °C 8.3 °C 12.6 °C 75% 1008.7 hPa 0 W/m² 0.0 mm 0.000 mm 5.0 km/h
03:20 12.6 °C 8.3 °C 12.6 °C 75% 1008.6 hPa 0 W/m² 0.0 mm 0.000 mm 5.2 km/h
03:25 12.6 °C 8.3 °C 12.6 °C 75% 1008.6 hPa 0 W/m² 0.0 mm 0.000 mm 4.8 km/h
03:30 12.4 °C 8.3 °C 12.4 °C 76% 1008.6 hPa 0 W/m² 0.0 mm 0.000 mm 2.7 km/h
03:35 12.4 °C 8.3 °C 12.4 °C 76% 1008.5 hPa 0 W/m² 0.0 mm 0.000 mm 4.7 km/h
03:40 12.3 °C 8.2 °C 12.3 °C 76% 1008.5 hPa 0 W/m² 0.0 mm 0.000 mm 1.5 km/h
03:45 12.3 °C 8.2 °C 12.3 °C 76% 1008.4 hPa 0 W/m² 0.0 mm 0.000 mm 4.9 km/h
03:50 12.3 °C 8.2 °C 12.3 °C 76% 1008.5 hPa 0 W/m² 0.0 mm 0.000 mm 5.1 km/h
03:55 12.3 °C 8.2 °C 12.3 °C 76% 1008.5 hPa 0 W/m² 0.0 mm 0.000 mm 4.3 km/h
04:00 12.2 °C 8.1 °C 12.2 °C 76% 1008.5 hPa 0 W/m² 0.0 mm 0.026 mm 3.2 km/h
04:05 12.2 °C 8.1 °C 12.2 °C 76% 1008.5 hPa 0 W/m² 0.0 mm 0.000 mm 3.1 km/h
04:10 12.1 °C 8.0 °C 12.1 °C 76% 1008.4 hPa 0 W/m² 0.0 mm 0.000 mm 1.8 km/h
04:15 12.1 °C 8.2 °C 12.1 °C 77% 1008.3 hPa 0 W/m² 0.0 mm 0.000 mm 0.0 km/h
04:20 11.9 °C 8.0 °C 11.9 °C 77% 1008.3 hPa 0 W/m² 0.0 mm 0.000 mm 0.0 km/h
04:25 11.8 °C 8.1 °C 11.8 °C 78% 1008.3 hPa 0 W/m² 0.0 mm 0.000 mm 0.0 km/h
04:30 11.7 °C 8.0 °C 11.7 °C 78% 1008.3 hPa 0 W/m² 0.0 mm 0.000 mm 0.0 km/h
04:35 11.5 °C 8.0 °C 11.5 °C 79% 1008.3 hPa 0 W/m² 0.0 mm 0.000 mm 3.5 km/h
04:40 11.4 °C 7.9 °C 11.4 °C 79% 1008.3 hPa 0 W/m² 0.0 mm 0.000 mm 3.1 km/h
04:45 11.4 °C 7.9 °C 11.4 °C 79% 1008.2 hPa 0 W/m² 0.0 mm 0.000 mm 3.6 km/h
04:50 11.3 °C 7.8 °C 11.3 °C 79% 1008.2 hPa 0 W/m² 0.0 mm 0.000 mm 1.6 km/h
04:55 11.3 °C 8.0 °C 11.3 °C 80% 1008.2 hPa 0 W/m² 0.0 mm 0.000 mm 0.0 km/h
05:00 11.3 °C 8.0 °C 11.3 °C 80% 1008.3 hPa 0 W/m² 0.0 mm 0.025 mm 0.7 km/h
05:05 11.2 °C 7.9 °C 11.2 °C 80% 1008.2 hPa 0 W/m² 0.0 mm 0.000 mm 2.6 km/h
05:10 11.1 °C 7.8 °C 11.1 °C 80% 1008.1 hPa 0 W/m² 0.0 mm 0.000 mm 6.2 km/h
05:15 11.2 °C 7.9 °C 10.8 °C 80% 1008.1 hPa 0 W/m² 0.0 mm 0.000 mm 7.0 km/h
05:20 11.2 °C 7.9 °C 9.8 °C 80% 1008.1 hPa 0 W/m² 0.0 mm 0.000 mm 8.5 km/h
05:25 11.3 °C 8.0 °C 10.4 °C 80% 1008.1 hPa 0 W/m² 0.0 mm 0.000 mm 7.7 km/h
05:30 11.3 °C 8.0 °C 11.3 °C 80% 1008.2 hPa 4 W/m² 0.0 mm 0.000 mm 5.6 km/h
05:35 11.2 °C 7.7 °C 11.2 °C 79% 1008.1 hPa 8 W/m² 0.0 mm 0.000 mm 5.8 km/h
05:40 11.3 °C 7.8 °C 10.9 °C 79% 1008.1 hPa 12 W/m² 0.0 mm 0.000 mm 7.0 km/h
05:45 11.3 °C 7.8 °C 11.3 °C 79% 1008.1 hPa 16 W/m² 0.0 mm 0.000 mm 4.3 km/h
05:50 11.4 °C 7.9 °C 11.4 °C 79% 1008.1 hPa 21 W/m² 0.0 mm 0.000 mm 3.7 km/h
05:55 11.4 °C 7.9 °C 11.4 °C 79% 1008.1 hPa 27 W/m² 0.0 mm 0.000 mm 1.8 km/h
06:00 11.4 °C 7.9 °C 11.4 °C 79% 1008.1 hPa 30 W/m² 0.0 mm 0.025 mm 0.2 km/h
06:05 11.4 °C 7.9 °C 11.4 °C 79% 1007.9 hPa 31 W/m² 0.0 mm 0.000 mm 0.0 km/h
06:10 11.4 °C 7.9 °C 11.4 °C 79% 1007.9 hPa 38 W/m² 0.0 mm 0.000 mm 0.0 km/h
06:15 11.4 °C 8.1 °C 11.4 °C 80% 1008.0 hPa 44 W/m² 0.0 mm 0.000 mm 0.0 km/h
06:20 11.4 °C 8.1 °C 11.4 °C 80% 1007.9 hPa 47 W/m² 0.0 mm 0.000 mm 0.5 km/h
06:25 11.4 °C 8.1 °C 11.4 °C 80% 1007.9 hPa 60 W/m² 0.0 mm 0.000 mm 3.7 km/h
06:30 11.6 °C 8.3 °C 11.6 °C 80% 1007.9 hPa 73 W/m² 0.0 mm 0.000 mm 6.5 km/h
06:35 11.7 °C 8.4 °C 11.2 °C 80% 1008.0 hPa 99 W/m² 0.0 mm 0.000 mm 7.1 km/h
06:40 11.9 °C 8.4 °C 11.9 °C 79% 1007.8 hPa 111 W/m² 0.0 mm 0.000 mm 0.9 km/h
06:45 12.1 °C 8.6 °C 12.1 °C 79% 1007.9 hPa 126 W/m² 0.0 mm 0.000 mm 1.0 km/h
06:50 12.3 °C 8.6 °C 12.3 °C 78% 1007.9 hPa 106 W/m² 0.0 mm 0.000 mm 3.5 km/h
06:55 12.4 °C 8.7 °C 12.4 °C 78% 1008.0 hPa 137 W/m² 0.0 mm 0.000 mm 4.0 km/h
07:00 12.6 °C 8.9 °C 12.6 °C 78% 1008.0 hPa 164 W/m² 0.0 mm 0.051 mm 2.2 km/h
07:05 12.8 °C 9.1 °C 12.8 °C 78% 1008.0 hPa 179 W/m² 0.0 mm 0.000 mm 2.4 km/h
07:10 13.1 °C 9.2 °C 13.1 °C 77% 1007.8 hPa 175 W/m² 0.0 mm 0.000 mm 0.4 km/h
07:15 13.3 °C 9.4 °C 13.3 °C 77% 1007.9 hPa 204 W/m² 0.0 mm 0.000 mm 3.7 km/h
07:20 13.5 °C 9.4 °C 13.5 °C 76% 1008.0 hPa 226 W/m² 0.0 mm 0.000 mm 2.1 km/h
07:25 13.8 °C 9.4 °C 13.8 °C 75% 1008.0 hPa 241 W/m² 0.0 mm 0.000 mm 2.6 km/h
07:30 14.0 °C 9.4 °C 14.0 °C 74% 1008.0 hPa 262 W/m² 0.0 mm 0.000 mm 5.5 km/h
07:35 14.3 °C 9.7 °C 14.3 °C 74% 1008.0 hPa 273 W/m² 0.0 mm 0.000 mm 2.1 km/h
07:40 14.4 °C 9.6 °C 14.4 °C 73% 1008.1 hPa 252 W/m² 0.0 mm 0.000 mm 3.0 km/h
07:45 14.7 °C 9.9 °C 14.7 °C 73% 1008.0 hPa 281 W/m² 0.0 mm 0.000 mm 4.3 km/h
07:50 14.9 °C 10.1 °C 14.9 °C 73% 1008.0 hPa 325 W/m² 0.0 mm 0.000 mm 1.9 km/h
07:55 15.1 °C 10.1 °C 15.1 °C 72% 1008.0 hPa 258 W/m² 0.0 mm 0.000 mm 5.9 km/h
08:00 15.2 °C 10.2 °C 15.2 °C 72% 1008.1 hPa 341 W/m² 0.0 mm 0.127 mm 5.8 km/h
08:05 15.3 °C 10.3 °C 14.0 °C 72% 1008.1 hPa 367 W/m² 0.0 mm 0.000 mm 8.8 km/h
08:10 15.3 °C 10.3 °C 12.7 °C 72% 1008.0 hPa 368 W/m² 0.0 mm 0.000 mm 11.9 km/h
08:15 15.4 °C 10.2 °C 13.4 °C 71% 1008.0 hPa 368 W/m² 0.0 mm 0.000 mm 10.4 km/h
08:20 15.6 °C 10.6 °C 14.1 °C 72% 1008.1 hPa 405 W/m² 0.0 mm 0.000 mm 9.3 km/h
08:25 15.7 °C 10.5 °C 14.4 °C 71% 1008.0 hPa 424 W/m² 0.0 mm 0.000 mm 8.9 km/h
08:30 16.1 °C 10.8 °C 15.4 °C 71% 1008.0 hPa 429 W/m² 0.0 mm 0.000 mm 7.8 km/h
08:35 16.2 °C 10.9 °C 15.9 °C 71% 1007.9 hPa 447 W/m² 0.0 mm 0.000 mm 7.0 km/h
08:40 16.6 °C 11.1 °C 16.6 °C 70% 1007.9 hPa 456 W/m² 0.0 mm 0.000 mm 6.0 km/h
08:45 16.8 °C 11.3 °C 16.8 °C 70% 1007.8 hPa 481 W/m² 0.0 mm 0.000 mm 3.4 km/h
08:50 17.2 °C 11.2 °C 17.2 °C 68% 1007.9 hPa 515 W/m² 0.0 mm 0.000 mm 4.1 km/h
08:55 17.4 °C 11.4 °C 16.4 °C 68% 1007.9 hPa 488 W/m² 0.0 mm 0.000 mm 8.5 km/h
09:00 17.4 °C 11.2 °C 14.9 °C 67% 1007.8 hPa 489 W/m² 0.0 mm 0.254 mm 12.5 km/h
09:05 17.7 °C 11.5 °C 17.7 °C 67% 1007.7 hPa 520 W/m² 0.0 mm 0.000 mm 5.9 km/h
09:10 17.7 °C 11.3 °C 16.2 °C 66% 1007.6 hPa 524 W/m² 0.0 mm 0.000 mm 9.7 km/h
09:15 17.8 °C 11.6 °C 15.6 °C 67% 1007.5 hPa 528 W/m² 0.0 mm 0.000 mm 11.8 km/h
09:20 17.8 °C 11.1 °C 15.1 °C 65% 1007.5 hPa 554 W/m² 0.0 mm 0.000 mm 13.1 km/h
09:25 17.7 °C 11.3 °C 13.5 °C 66% 1007.6 hPa 560 W/m² 0.0 mm 0.000 mm 18.9 km/h
09:30 17.6 °C 11.4 °C 14.2 °C 67% 1007.6 hPa 576 W/m² 0.0 mm 0.000 mm 15.6 km/h
09:35 17.7 °C 11.0 °C 14.4 °C 65% 1007.3 hPa 586 W/m² 0.0 mm 0.000 mm 15.1 km/h
09:40 17.9 °C 11.2 °C 14.0 °C 65% 1007.5 hPa 614 W/m² 0.0 mm 0.000 mm 17.6 km/h
09:45 18.1 °C 11.4 °C 15.3 °C 65% 1007.5 hPa 625 W/m² 0.0 mm 0.000 mm 13.6 km/h
09:50 18.4 °C 11.5 °C 16.8 °C 64% 1007.4 hPa 642 W/m² 0.0 mm 0.000 mm 10.2 km/h
09:55 18.4 °C 11.0 °C 15.5 °C 62% 1007.3 hPa 602 W/m² 0.0 mm 0.000 mm 14.3 km/h
10:00 18.4 °C 11.2 °C 15.8 °C 63% 1007.3 hPa 623 W/m² 0.0 mm 0.381 mm 13.1 km/h
10:05 18.5 °C 10.8 °C 14.9 °C 61% 1007.3 hPa 654 W/m² 0.0 mm 0.000 mm 17.1 km/h
10:10 18.6 °C 11.7 °C 17.6 °C 64% 1007.3 hPa 670 W/m² 0.0 mm 0.000 mm 8.6 km/h
10:15 18.8 °C 11.4 °C 16.3 °C 62% 1007.2 hPa 658 W/m² 0.0 mm 0.000 mm 13.0 km/h
10:20 18.8 °C 11.1 °C 16.6 °C 61% 1007.3 hPa 650 W/m² 0.0 mm 0.000 mm 12.2 km/h
10:25 19.0 °C 11.3 °C 16.3 °C 61% 1007.4 hPa 699 W/m² 0.0 mm 0.000 mm 14.1 km/h
10:30 18.8 °C 11.1 °C 14.7 °C 61% 1007.3 hPa 677 W/m² 0.0 mm 0.000 mm 19.6 km/h
10:35 18.8 °C 11.1 °C 16.6 °C 61% 1007.5 hPa 641 W/m² 0.0 mm 0.000 mm 12.2 km/h
10:40 18.8 °C 11.1 °C 15.5 °C 61% 1007.4 hPa 635 W/m² 0.0 mm 0.000 mm 16.0 km/h
10:45 18.8 °C 11.1 °C 15.0 °C 61% 1007.4 hPa 650 W/m² 0.0 mm 0.000 mm 18.5 km/h
10:50 19.1 °C 11.4 °C 16.5 °C 61% 1007.4 hPa 753 W/m² 0.0 mm 0.000 mm 13.8 km/h
10:55 19.1 °C 11.1 °C 15.8 °C 60% 1007.3 hPa 556 W/m² 0.0 mm 0.000 mm 16.3 km/h
11:00 19.3 °C 10.8 °C 16.8 °C 58% 1007.1 hPa 680 W/m² 0.0 mm 0.432 mm 13.3 km/h
11:05 19.6 °C 11.1 °C 17.3 °C 58% 1007.3 hPa 646 W/m² 0.0 mm 0.000 mm 12.9 km/h
11:10 19.7 °C 11.2 °C 16.7 °C 58% 1007.2 hPa 900 W/m² 0.0 mm 0.000 mm 15.6 km/h
11:15 20.0 °C 11.2 °C 17.3 °C 57% 1007.3 hPa 853 W/m² 0.0 mm 0.000 mm 14.9 km/h
11:20 19.9 °C 10.9 °C 18.7 °C 56% 1007.1 hPa 454 W/m² 0.0 mm 0.000 mm 9.6 km/h
11:25 20.1 °C 11.6 °C 18.0 °C 58% 1007.2 hPa 778 W/m² 0.0 mm 0.000 mm 12.4 km/h
11:30 20.1 °C 11.3 °C 16.8 °C 57% 1007.2 hPa 954 W/m² 0.0 mm 0.000 mm 17.4 km/h
11:35 20.1 °C 11.8 °C 16.7 °C 59% 1007.3 hPa 918 W/m² 0.0 mm 0.000 mm 18.1 km/h
11:40 20.3 °C 11.2 °C 17.2 °C 56% 1007.1 hPa 904 W/m² 0.0 mm 0.000 mm 16.8 km/h
11:45 20.3 °C 11.5 °C 16.7 °C 57% 1007.1 hPa 987 W/m² 0.0 mm 0.000 mm 19.6 km/h
11:50 20.6 °C 11.2 °C 18.3 °C 55% 1007.0 hPa 917 W/m² 0.0 mm 0.000 mm 13.6 km/h
11:55 20.7 °C 11.3 °C 18.0 °C 55% 1007.2 hPa 1015 W/m² 0.0 mm 0.000 mm 15.3 km/h
12:00 20.9 °C 11.2 °C 18.7 °C 54% 1007.2 hPa 1100 W/m² 0.0 mm 0.584 mm 13.6 km/h
12:05 20.9 °C 11.0 °C 17.9 °C 53% 1007.1 hPa 1011 W/m² 0.0 mm 0.000 mm 17.1 km/h
12:10 20.6 °C 11.0 °C 17.5 °C 54% 1007.0 hPa 876 W/m² 0.0 mm 0.000 mm 17.1 km/h
12:15 20.3 °C 11.0 °C 16.9 °C 55% 1006.8 hPa 870 W/m² 0.0 mm 0.000 mm 18.2 km/h
12:20 20.6 °C 11.2 °C 17.7 °C 55% 1006.8 hPa 871 W/m² 0.0 mm 0.000 mm 16.5 km/h
12:25 20.8 °C 11.1 °C 19.6 °C 54% 1006.9 hPa 891 W/m² 0.0 mm 0.000 mm 9.7 km/h
12:30 20.7 °C 11.3 °C 17.2 °C 55% 1006.7 hPa 910 W/m² 0.0 mm 0.000 mm 19.5 km/h
12:35 20.9 °C 12.1 °C 19.5 °C 57% 1006.4 hPa 928 W/m² 0.0 mm 0.000 mm 10.6 km/h
12:40 21.1 °C 11.1 °C 18.4 °C 53% 1006.4 hPa 943 W/m² 0.0 mm 0.000 mm 15.8 km/h
12:45 20.9 °C 11.2 °C 18.1 °C 54% 1006.4 hPa 933 W/m² 0.0 mm 0.000 mm 16.2 km/h
12:50 20.8 °C 11.4 °C 18.2 °C 55% 1006.4 hPa 991 W/m² 0.0 mm 0.000 mm 15.3 km/h
12:55 20.8 °C 12.0 °C 19.0 °C 57% 1006.4 hPa 852 W/m² 0.0 mm 0.000 mm 11.8 km/h
13:00 21.1 °C 11.7 °C 19.1 °C 55% 1006.2 hPa 840 W/m² 0.0 mm 0.000 mm 12.9 km/h
13:05 20.8 °C 11.1 °C 17.9 °C 54% 1006.2 hPa 847 W/m² 0.0 mm 0.610 mm 16.4 km/h
13:10 20.9 °C 11.5 °C 19.4 °C 55% 1006.2 hPa 809 W/m² 0.0 mm 0.000 mm 10.8 km/h
13:15 21.1 °C 12.2 °C 19.9 °C 57% 1006.2 hPa 881 W/m² 0.0 mm 0.000 mm 9.8 km/h
13:20 21.4 °C 12.0 °C 21.4 °C 55% 1006.1 hPa 725 W/m² 0.0 mm 0.000 mm 5.6 km/h
13:25 21.7 °C 12.5 °C 20.4 °C 56% 1006.1 hPa 853 W/m² 0.0 mm 0.000 mm 10.6 km/h
13:30 21.6 °C 11.9 °C 20.1 °C 54% 1006.0 hPa 905 W/m² 0.0 mm 0.000 mm 11.2 km/h
13:35 21.1 °C 11.4 °C 18.3 °C 54% 1006.1 hPa 824 W/m² 0.0 mm 0.000 mm 16.4 km/h
13:40 21.3 °C 12.2 °C 19.5 °C 56% 1006.0 hPa 862 W/m² 0.0 mm 0.000 mm 12.2 km/h
13:45 21.1 °C 11.4 °C 18.5 °C 54% 1006.1 hPa 597 W/m² 0.0 mm 0.000 mm 15.5 km/h
13:50 21.1 °C 12.0 °C 18.9 °C 56% 1006.1 hPa 749 W/m² 0.0 mm 0.000 mm 13.7 km/h
13:55 21.2 °C 12.1 °C 18.7 °C 56% 1006.0 hPa 761 W/m² 0.0 mm 0.000 mm 15.1 km/h
14:00 21.3 °C 11.6 °C 19.8 °C 54% 1006.0 hPa 707 W/m² 0.0 mm 0.533 mm 11.1 km/h
14:05 21.5 °C 11.5 °C 19.0 °C 53% 1006.1 hPa 827 W/m² 0.0 mm 0.000 mm 15.2 km/h
14:10 21.6 °C 11.9 °C 20.0 °C 54% 1006.1 hPa 914 W/m² 0.0 mm 0.000 mm 11.6 km/h
14:15 21.8 °C 11.8 °C 20.7 °C 53% 1006.0 hPa 943 W/m² 0.0 mm 0.000 mm 9.6 km/h
14:20 21.8 °C 11.8 °C 19.6 °C 53% 1005.9 hPa 653 W/m² 0.0 mm 0.000 mm 14.0 km/h
14:25 21.4 °C 11.7 °C 20.6 °C 54% 1005.4 hPa 365 W/m² 0.0 mm 0.000 mm 8.8 km/h
14:30 21.1 °C 12.0 °C 21.0 °C 56% 1006.0 hPa 339 W/m² 0.0 mm 0.000 mm 6.6 km/h
14:35 21.1 °C 12.5 °C 21.1 °C 58% 1006.0 hPa 358 W/m² 0.0 mm 0.000 mm 4.0 km/h
14:40 21.3 °C 12.2 °C 21.3 °C 56% 1006.0 hPa 354 W/m² 0.0 mm 0.000 mm 1.8 km/h
14:45 21.3 °C 12.2 °C 21.3 °C 56% 1005.9 hPa 335 W/m² 0.0 mm 0.000 mm 6.1 km/h
14:50 21.1 °C 12.0 °C 21.1 °C 56% 1005.9 hPa 346 W/m² 0.0 mm 0.000 mm 5.0 km/h
14:55 21.1 °C 12.5 °C 21.1 °C 58% 1005.7 hPa 341 W/m² 0.0 mm 0.000 mm 2.9 km/h
15:00 20.9 °C 12.8 °C 20.7 °C 60% 1005.9 hPa 384 W/m² 0.0 mm 0.356 mm 6.9 km/h
15:05 20.9 °C 13.1 °C 20.9 °C 61% 1006.0 hPa 279 W/m² 0.0 mm 0.000 mm 3.8 km/h